createdAt,value
2023-05-05T04:40:16.424Z,12.02
2023-05-05T04:43:19.979Z,13.40
2023-05-05T04:46:25.667Z,20.12
2023-05-05T04:49:32.393Z,7.00
2023-05-05T04:52:34.987Z,12.43
2023-05-05T04:55:37.466Z,16.70
2023-05-05T04:58:39.972Z,6.65
2023-05-05T05:01:42.583Z,14.15
2023-05-05T05:04:45.301Z,10.90
2023-05-05T05:07:47.810Z,8.10
2023-05-05T05:10:50.364Z,9.27
2023-05-05T05:13:53.284Z,7.80
2023-05-05T05:16:55.789Z,9.90
2023-05-05T05:20:01.455Z,6.32
2023-05-05T05:23:05.444Z,14.10
2023-05-05T05:26:08.052Z,13.55
2023-05-05T05:29:10.638Z,10.85
2023-05-05T05:32:13.204Z,7.47
2023-05-05T05:35:15.866Z,10.38
2023-05-05T05:38:18.406Z,7.30
2023-05-05T05:41:21.745Z,7.62
2023-05-05T05:44:24.667Z,5.22
2023-05-05T05:47:28.231Z,12.30
2023-05-05T05:50:30.902Z,5.65
2023-05-05T05:53:33.537Z,4.78
2023-05-05T05:56:36.110Z,11.73
2023-05-05T05:59:38.655Z,6.10
2023-05-05T06:02:41.318Z,4.22
2023-05-05T06:05:45.814Z,5.47
2023-05-05T06:08:48.322Z,6.18
2023-05-05T06:11:51.546Z,3.85
2023-05-05T06:14:54.417Z,6.53
2023-05-05T06:17:57.135Z,8.65
2023-05-05T06:21:00.365Z,7.55
2023-05-05T06:24:03.040Z,5.78
2023-05-05T06:27:05.701Z,5.90
2023-05-05T06:30:09.852Z,4.32
2023-05-05T06:33:12.648Z,8.40
2023-05-05T06:36:15.798Z,5.87
2023-05-05T06:39:18.683Z,6.20
2023-05-05T06:42:21.325Z,4.40
2023-05-05T06:45:23.817Z,4.45
2023-05-05T06:48:26.361Z,5.87
2023-05-05T06:51:28.876Z,5.97
2023-05-05T06:54:31.392Z,4.05
2023-05-05T06:57:33.881Z,4.25
2023-05-05T07:00:36.403Z,3.12
2023-05-05T07:03:39.177Z,3.92
2023-05-05T07:06:41.672Z,4.93
2023-05-05T07:09:45.204Z,4.32
2023-05-05T07:12:47.976Z,5.10
2023-05-05T07:15:50.596Z,9.75
2023-05-05T07:18:53.157Z,4.45
2023-05-05T07:21:55.744Z,7.57
2023-05-05T07:24:58.287Z,3.95
2023-05-05T07:28:00.860Z,10.63
2023-05-05T07:31:03.394Z,7.32
2023-05-05T07:34:05.893Z,5.70
2023-05-05T07:37:08.464Z,5.43
2023-05-05T07:40:11.564Z,8.63
2023-05-05T07:43:14.946Z,5.78
2023-05-05T07:46:18.062Z,11.68
2023-05-05T07:49:20.952Z,6.37
2023-05-05T07:52:37.049Z,9.35
2023-05-05T07:55:46.506Z,5.87
2023-05-05T07:58:49.071Z,6.47
2023-05-05T08:01:54.276Z,7.07
2023-05-05T08:04:57.454Z,6.30
2023-05-05T08:08:00.200Z,14.15
2023-05-05T08:11:03.147Z,4.37
2023-05-05T08:14:05.694Z,6.30
2023-05-05T08:17:08.671Z,19.23
2023-05-05T08:20:11.879Z,10.27
2023-05-05T08:23:14.378Z,12.90
2023-05-05T08:26:17.019Z,4.53
2023-05-05T08:29:21.219Z,5.43
2023-05-05T08:32:23.982Z,9.10
2023-05-05T08:35:26.662Z,8.75
2023-05-05T08:38:29.217Z,7.55
2023-05-05T08:41:31.747Z,5.82
2023-05-05T08:44:34.348Z,4.95
2023-05-05T08:47:37.172Z,4.03
2023-05-05T08:50:39.931Z,8.27
2023-05-05T08:53:54.591Z,6.93
2023-05-05T08:56:57.253Z,6.25
2023-05-05T08:59:59.813Z,9.23
2023-05-05T09:03:02.514Z,18.17
2023-05-05T09:06:05.316Z,7.35
2023-05-05T09:09:08.314Z,9.93
2023-05-05T09:12:11.739Z,9.65
2023-05-05T09:15:16.540Z,4.85
2023-05-05T09:18:19.113Z,5.05
2023-05-05T09:21:26.088Z,5.25
2023-05-05T09:24:28.607Z,6.87
2023-05-05T09:27:31.160Z,5.97
2023-05-05T09:30:33.795Z,8.65
2023-05-05T09:33:36.404Z,4.85
2023-05-05T09:36:48.464Z,5.70
2023-05-05T09:39:55.169Z,8.80
2023-05-05T09:43:03.899Z,6.15
2023-05-05T09:46:09.723Z,6.03
2023-05-05T09:49:30.802Z,5.32
2023-05-05T09:52:33.374Z,5.78
2023-05-05T09:55:36.260Z,6.18
2023-05-05T09:58:38.936Z,8.20
2023-05-05T10:01:43.554Z,10.18
2023-05-05T10:04:46.273Z,9.85
2023-05-05T10:07:48.867Z,6.57
2023-05-05T10:10:59.775Z,5.07
2023-05-05T10:14:02.695Z,4.35
2023-05-05T10:17:05.780Z,5.90
2023-05-05T10:20:08.907Z,5.78
2023-05-05T10:23:13.433Z,8.00
2023-05-05T10:26:16.049Z,7.65
2023-05-05T10:29:42.493Z,6.55
2023-05-05T10:32:57.332Z,3.53
2023-05-05T10:36:07.817Z,5.28
2023-05-05T10:39:11.290Z,6.57
2023-05-05T10:42:14.062Z,6.97
2023-05-05T10:45:16.777Z,7.25
2023-05-05T10:48:23.371Z,4.68
2023-05-05T10:52:04.190Z,6.43
2023-05-05T10:55:24.712Z,7.00
2023-05-05T10:58:44.097Z,4.80
2023-05-05T11:01:51.392Z,6.00
2023-05-05T11:05:21.471Z,3.72
2023-05-05T11:08:29.724Z,15.75
2023-05-05T11:12:03.752Z,7.05
2023-05-05T11:15:28.435Z,5.97
2023-05-05T11:18:37.874Z,3.62
2023-05-05T11:22:00.055Z,12.93
2023-05-05T11:25:40.939Z,6.85
2023-05-05T11:29:01.119Z,5.72
2023-05-05T11:32:13.910Z,5.82
2023-05-05T11:35:16.652Z,3.42
2023-05-05T11:38:19.231Z,6.82
2023-05-05T11:41:34.218Z,6.35
2023-05-05T11:44:37.792Z,6.43
2023-05-05T11:47:40.494Z,5.65
2023-05-05T11:50:44.203Z,4.35
2023-05-05T11:53:47.795Z,5.87
2023-05-05T11:56:51.412Z,7.03
2023-05-05T12:00:10.995Z,5.75
2023-05-05T12:03:14.307Z,6.85
2023-05-05T12:06:17.054Z,6.68
2023-05-05T12:09:20.923Z,4.68
2023-05-05T12:12:43.790Z,8.77
2023-05-05T12:15:47.317Z,6.22
2023-05-05T12:18:50.152Z,4.78
2023-05-05T12:21:54.833Z,5.35
2023-05-05T12:24:58.424Z,3.30
2023-05-05T12:28:01.011Z,4.25
2023-05-05T12:31:03.838Z,5.50
2023-05-05T12:34:07.340Z,4.70
2023-05-05T12:37:09.890Z,5.97
2023-05-05T12:40:50.111Z,6.03
2023-05-05T12:43:57.241Z,3.58
2023-05-05T12:46:59.945Z,12.93
2023-05-05T12:50:03.440Z,4.45
2023-05-05T12:53:05.955Z,7.35
2023-05-05T12:56:30.140Z,8.57
2023-05-05T12:59:32.638Z,5.65
2023-05-05T13:02:36.770Z,6.30
2023-05-05T13:05:41.440Z,4.83
2023-05-05T13:08:44.119Z,7.20
2023-05-05T13:11:46.808Z,6.60
2023-05-05T13:14:49.383Z,3.37
2023-05-05T13:18:01.137Z,3.45
2023-05-05T13:21:03.910Z,4.87
2023-05-05T13:24:23.018Z,6.25
2023-05-05T13:27:29.511Z,4.95
2023-05-05T13:30:32.130Z,5.47
2023-05-05T13:33:34.966Z,2.97
2023-05-05T13:36:37.753Z,8.20
2023-05-05T13:39:40.551Z,4.57
2023-05-05T13:42:43.163Z,8.55
2023-05-05T13:45:46.096Z,10.23
2023-05-05T13:48:48.734Z,13.35
2023-05-05T13:51:51.337Z,7.50
2023-05-05T13:54:53.887Z,6.93
2023-05-05T13:57:56.468Z,4.57
2023-05-05T14:00:59.035Z,9.40
2023-05-05T14:04:04.536Z,4.85
2023-05-05T14:07:08.144Z,9.75
2023-05-05T14:10:11.053Z,4.05
2023-05-05T14:13:15.511Z,3.87
2023-05-05T14:16:18.183Z,4.10
2023-05-05T14:19:20.808Z,5.00
2023-05-05T14:22:23.426Z,6.53
2023-05-05T14:25:26.006Z,5.12
2023-05-05T14:28:28.674Z,11.77
2023-05-05T14:31:31.304Z,3.72
2023-05-05T14:34:33.884Z,3.58
2023-05-05T14:37:36.513Z,8.23
2023-05-05T14:40:39.072Z,7.97
2023-05-05T14:43:41.725Z,5.22
2023-05-05T14:46:45.980Z,4.97
2023-05-05T14:49:48.908Z,10.35
2023-05-05T14:52:51.495Z,12.68
2023-05-05T14:55:54.057Z,6.87
2023-05-05T14:58:56.698Z,7.97
2023-05-05T15:01:59.401Z,3.83
2023-05-05T15:05:02.136Z,10.38
2023-05-05T15:08:04.833Z,3.42
2023-05-05T15:11:07.455Z,9.32
2023-05-05T15:14:10.032Z,8.27
2023-05-05T15:17:12.624Z,2.83
2023-05-05T15:20:15.162Z,6.55
2023-05-05T15:23:17.726Z,9.07
2023-05-05T15:26:20.284Z,6.65
2023-05-05T15:29:22.870Z,7.40
2023-05-05T15:32:25.586Z,66.87
2023-05-05T15:35:28.232Z,2.85
2023-05-05T15:38:30.836Z,13.55
2023-05-05T15:41:36.146Z,3.22
2023-05-05T15:44:38.751Z,5.32
2023-05-05T15:47:41.458Z,8.35
2023-05-05T15:50:44.120Z,4.95
2023-05-05T15:53:47.326Z,9.55
2023-05-05T15:56:49.806Z,6.35
2023-05-05T15:59:52.748Z,3.05
2023-05-05T16:02:55.298Z,9.57
2023-05-05T16:05:57.997Z,10.63
2023-05-05T16:09:00.644Z,6.62
2023-05-05T16:12:03.381Z,5.65
2023-05-05T16:15:06.739Z,8.07
2023-05-05T16:18:09.460Z,12.20
2023-05-05T16:21:12.439Z,6.87
2023-05-05T16:24:16.701Z,7.37
2023-05-05T16:27:19.586Z,3.90
2023-05-05T16:30:22.153Z,7.47
2023-05-05T16:33:24.782Z,6.03
2023-05-05T16:36:28.025Z,5.85
2023-05-05T16:39:33.035Z,12.20
2023-05-05T16:42:35.665Z,4.65
2023-05-05T16:45:38.232Z,4.60
2023-05-05T16:48:41.193Z,12.55
2023-05-05T16:51:43.731Z,2.65
2023-05-05T16:54:48.095Z,10.00
2023-05-05T16:57:50.637Z,4.50
2023-05-05T17:00:53.625Z,6.28
2023-05-05T17:03:57.557Z,6.22
2023-05-05T17:07:00.112Z,4.65
2023-05-05T17:10:02.722Z,4.78
2023-05-05T17:13:05.269Z,13.45
2023-05-05T17:16:08.019Z,7.05
2023-05-05T17:19:10.697Z,7.07
2023-05-05T17:22:13.300Z,7.87
2023-05-05T17:25:15.980Z,3.60
2023-05-05T17:28:18.580Z,7.00
2023-05-05T17:31:21.236Z,3.33
2023-05-05T17:34:23.754Z,7.75
2023-05-05T17:37:26.349Z,11.50
2023-05-05T17:40:28.995Z,8.07
2023-05-05T17:43:31.543Z,4.10
2023-05-05T17:46:34.047Z,7.32
2023-05-05T17:49:36.579Z,6.82
2023-05-05T17:52:40.517Z,5.55
2023-05-05T17:55:46.288Z,12.37
2023-05-05T17:58:49.105Z,8.32
2023-05-05T18:01:51.742Z,9.00
2023-05-05T18:04:54.331Z,8.23
2023-05-05T18:07:56.943Z,20.25
2023-05-05T18:10:59.505Z,17.48
2023-05-05T18:14:02.027Z,22.60
2023-05-05T18:17:04.990Z,32.83
2023-05-05T18:20:08.143Z,28.90
2023-05-05T18:23:11.318Z,20.40
2023-05-05T18:26:13.931Z,33.35
2023-05-05T18:29:17.454Z,16.15
2023-05-05T18:32:20.125Z,29.98
2023-05-05T18:35:22.719Z,16.00
2023-05-05T18:38:25.378Z,17.00
2023-05-05T18:41:27.956Z,17.30
2023-05-05T18:44:32.825Z,10.18
2023-05-05T18:47:37.516Z,18.90
2023-05-05T18:50:40.136Z,14.35
2023-05-05T18:53:42.676Z,11.98
2023-05-05T18:56:45.260Z,12.13
2023-05-05T18:59:47.839Z,11.77
2023-05-05T19:02:50.467Z,31.08
2023-05-05T19:05:53.000Z,21.12
2023-05-05T19:08:56.860Z,12.27
2023-05-05T19:11:59.540Z,11.07
2023-05-05T19:15:02.170Z,10.45
2023-05-05T19:18:06.519Z,13.82
2023-05-05T19:21:09.144Z,9.93
2023-05-05T19:24:11.824Z,8.95
2023-05-05T19:27:16.635Z,11.00
2023-05-05T19:30:21.807Z,17.77
2023-05-05T19:33:24.385Z,15.07
2023-05-05T19:36:27.902Z,17.73
2023-05-05T19:39:30.506Z,18.75
2023-05-05T19:42:33.083Z,18.80
2023-05-05T19:45:35.684Z,17.20
2023-05-05T19:48:38.301Z,15.65
2023-05-05T19:51:42.093Z,16.65
2023-05-05T19:54:44.633Z,15.80
2023-05-05T19:57:47.370Z,15.40
2023-05-05T20:00:49.883Z,24.25
2023-05-05T20:03:54.522Z,15.35
2023-05-05T20:06:57.455Z,18.33
2023-05-05T20:10:00.857Z,15.35
2023-05-05T20:13:03.518Z,14.73
2023-05-05T20:16:06.670Z,12.77
2023-05-05T20:19:09.260Z,30.05
2023-05-05T20:22:11.781Z,26.25
2023-05-05T20:25:16.313Z,17.25
2023-05-05T20:28:18.918Z,19.00
2023-05-05T20:31:21.624Z,22.80
2023-05-05T20:34:27.904Z,21.65
2023-05-05T20:37:30.420Z,17.02
2023-05-05T20:40:33.817Z,18.40
2023-05-05T20:43:36.944Z,22.85
2023-05-05T20:46:39.564Z,25.90
2023-05-05T20:49:42.179Z,24.63
2023-05-05T20:52:44.717Z,22.23
2023-05-05T20:55:47.263Z,27.27
2023-05-05T20:58:49.866Z,28.90
2023-05-05T21:01:52.438Z,25.90
2023-05-05T21:04:55.063Z,19.12
2023-05-05T21:07:59.214Z,19.95
2023-05-05T21:11:03.322Z,22.30
2023-05-05T21:14:06.170Z,21.62
2023-05-05T21:17:08.737Z,20.83
2023-05-05T21:20:12.308Z,24.17
2023-05-05T21:23:15.172Z,22.42
2023-05-05T21:26:17.687Z,23.23
2023-05-05T21:29:20.283Z,16.40
2023-05-05T21:32:22.911Z,21.83
2023-05-05T21:35:25.570Z,22.42
2023-05-05T21:38:28.154Z,14.65
2023-05-05T21:41:30.885Z,18.52
2023-05-05T21:44:33.552Z,17.33
2023-05-05T21:47:36.236Z,21.08
2023-05-05T21:50:38.878Z,13.40
2023-05-05T21:53:41.479Z,17.00
2023-05-05T21:56:43.997Z,12.70
2023-05-05T21:59:46.752Z,13.20
2023-05-05T22:02:49.499Z,15.05
2023-05-05T22:05:52.378Z,33.83
2023-05-05T22:08:56.742Z,49.38
2023-05-05T22:11:59.414Z,59.67
2023-05-05T22:15:01.938Z,65.32
2023-05-05T22:18:04.784Z,50.88
2023-05-05T22:21:07.364Z,48.80
2023-05-05T22:24:09.999Z,46.80
2023-05-05T22:27:12.529Z,40.20
2023-05-05T22:30:15.155Z,43.50
2023-05-05T22:33:17.684Z,35.25
2023-05-05T22:36:20.307Z,34.35
2023-05-05T22:39:23.839Z,37.13
2023-05-05T22:42:26.958Z,32.78
2023-05-05T22:45:29.587Z,22.30
2023-05-05T22:48:32.294Z,23.67
2023-05-05T22:51:35.295Z,21.15
2023-05-05T22:54:37.864Z,18.77
2023-05-05T22:57:40.541Z,18.90
2023-05-05T23:00:43.310Z,14.48
2023-05-05T23:03:46.463Z,15.35
2023-05-05T23:06:49.039Z,10.68
2023-05-05T23:09:51.631Z,20.20
2023-05-05T23:12:54.242Z,12.95
2023-05-05T23:15:56.842Z,12.43
2023-05-05T23:18:59.376Z,10.25
2023-05-05T23:22:02.505Z,7.90
2023-05-05T23:25:05.350Z,13.10
2023-05-05T23:28:07.854Z,6.32
2023-05-05T23:31:10.533Z,15.35
2023-05-05T23:34:13.935Z,11.12
2023-05-05T23:37:16.476Z,8.15
2023-05-05T23:40:19.285Z,8.35
2023-05-05T23:43:21.917Z,11.90
2023-05-05T23:46:24.489Z,9.07
2023-05-05T23:49:27.054Z,7.07
2023-05-05T23:52:29.618Z,13.88
2023-05-05T23:55:32.286Z,11.52
2023-05-05T23:58:34.851Z,9.85
